Report METAR

 

LIML - Milano/Linate, Italy
Distance from station: NO 27km
Dati ricevuti: 05/07/2022 17:20
Few Clouds
Few Clouds
 Vento da SSO
Vento: SSO 17 km/h
Temperatura: 34°C
P.to Rugiada: 16°C
Umidità: 34%
Barometro: 1012 hPa
Nuvole: Few Clouds
Visibility: 10 km
Cloud details: Few Clouds 1219 m
2022/07/05 15:20 LIML 051520Z 21009KT 180V240 9999 FEW040 34/16 Q1012 NOSIG
LIME - Bergamo/Orio Ser, Italy
Distance from station: NNE 43km
Dati ricevuti: 05/07/2022 17:20
Few Clouds
Few Clouds
 Vento da S
Vento: S 15 km/h
Temperatura: 33°C
P.to Rugiada: 17°C
Umidità: 38%
Barometro: 1013 hPa
Nuvole: Few Clouds
Visibility: 10 km
Cloud details: Few Clouds 1829 m
2022/07/05 15:20 LIME 051520Z 19008KT 140V250 9999 FEW060 33/17 Q1013 NOSIG
 
LIMS - Piacenza, it-Afb, Italy
Distance from station: SSE 45km
Dati ricevuti: 05/07/2022 16:55
Sereno
Sereno
 Vento da NO
Vento: NO 6 km/h
Temperatura: 33°C
Indice di Calore: 37°C
P.to Rugiada: 22°C
Umidità: 52%
Barometro: 1013 hPa
Summary: Sereno
Visibility: superiore a 10 km
2022/07/05 14:55 LIMS 051455Z 31003KT CAVOK 33/22 Q1013
LIPO - Brescia/Montichi, Italy
Distance from station: ENE 65km
Dati ricevuti: 05/07/2022 17:20
Sereno
Sereno
 Vento da OSO
Vento: OSO 11 km/h
Temperatura: 33°C
P.to Rugiada: 17°C
Umidità: 38%
Barometro: 1013 hPa
Nuvole: Sereno
Visibility: 10 km
2022/07/05 15:20 LIPO 051520Z AUTO 24006KT 210V280 9999 NCD 33/17 Q1013